Time;durP1;ratioP1;P1;durP2;ratioP2;P2;SDS_P1;SDS_P2;PMS_P1;PMS_P2;Temp;Humidity;BMP_temperature;BMP_pressure;BME280_temperature;BME280_humidity;BME280_pressure;Samples;Min_cycle;Max_cycle;Signal;HPM_P1;HPM_P2
2023/05/02 00:01:29;;;;;;;15.82;4.25;;;;;;;;;;4900559;29;20424;-68
2023/05/02 00:03:55;;;;;;;9.90;3.22;;;;;;;;;;4900306;29;20123;-68
2023/05/02 00:06:21;;;;;;;10.20;3.80;;;;;;;;;;4900211;29;20044;-68
2023/05/02 00:08:50;;;;;;;14.90;3.63;;;;;;;;;;4900212;29;20044;-68
2023/05/02 00:11:17;;;;;;;8.60;3.58;;;;;;;;;;4900089;29;20103;-70
2023/05/02 00:13:43;;;;;;;9.07;3.03;;;;;;;;;;4900437;29;20048;-69
2023/05/02 00:16:10;;;;;;;11.55;3.28;;;;;;;;;;4917152;29;20091;-69
2023/05/02 00:18:36;;;;;;;8.43;3.17;;;;;;;;;;4900322;29;20098;-68
2023/05/02 00:21:02;;;;;;;7.93;3.33;;;;;;;;;;4900238;29;20055;-68
2023/05/02 00:23:28;;;;;;;10.43;3.40;;;;;;;;;;4900215;29;20501;-68
2023/05/02 00:25:54;;;;;;;6.63;3.30;;;;;;;;;;4900087;29;20481;-68
2023/05/02 00:28:20;;;;;;;12.68;3.15;;;;;;;;;;4899899;29;20413;-69
2023/05/02 00:30:46;;;;;;;8.73;3.20;;;;;;;;;;4899816;29;20052;-68
2023/05/02 00:33:13;;;;;;;9.60;3.05;;;;;;;;;;4900095;29;20048;-68
2023/05/02 00:35:40;;;;;;;8.57;3.50;;;;;;;;;;4900103;29;20047;-68
2023/05/02 00:38:06;;;;;;;6.10;2.72;;;;;;;;;;4899836;29;20493;-68
2023/05/02 00:40:45;;;;;;;10.45;3.30;;;9.90;99.90;;;;;;4884424;29;20051;-68
2023/05/02 00:43:11;;;;;;;21.15;4.18;;;;;;;;;;4899910;29;20123;-68
2023/05/02 00:45:42;;;;;;;16.27;3.90;;;9.70;99.90;;;;;;4899830;29;20040;-68
2023/05/02 00:48:08;;;;;;;14.75;3.78;;;9.70;99.90;;;;;;4916724;29;20516;-68
2023/05/02 00:50:40;;;;;;;17.15;4.47;;;8.90;99.90;;;;;;4900058;29;20040;-69
2023/05/02 00:53:06;;;;;;;18.90;4.30;;;;;;;;;;4899785;29;20032;-69
2023/05/02 00:55:33;;;;;;;15.93;4.35;;;9.70;99.90;;;;;;4900089;29;20036;-69
2023/05/02 00:58:02;;;;;;;14.48;3.80;;;9.60;99.90;;;;;;4883919;29;20451;-69
2023/05/02 01:00:42;;;;;;;20.70;4.72;;;10.20;99.90;;;;;;4899858;29;20052;-69
2023/05/02 01:03:27;;;;;;;19.23;4.38;;;9.40;99.90;;;;;;4899910;29;20048;-69
2023/05/02 01:06:13;;;;;;;26.25;4.57;;;;;;;;;;4900622;29;20083;-69
2023/05/02 01:08:47;;;;;;;16.20;4.35;;;;;;;;;;4856829;29;20056;-69
2023/05/02 01:11:13;;;;;;;19.08;4.05;;;;;;;;;;4903124;29;20044;-69
2023/05/02 01:13:43;;;;;;;22.17;4.90;;;9.20;99.90;;;;;;4887621;29;20127;-69
2023/05/02 01:16:11;;;;;;;23.80;4.57;;;9.30;99.90;;;;;;4887810;29;20036;-71
2023/05/02 01:18:41;;;;;;;22.90;5.50;;;9.20;99.90;;;;;;4902928;29;20116;-71
2023/05/02 01:21:09;;;;;;;19.67;4.05;;;9.20;99.90;;;;;;4902920;29;20051;-71
2023/05/02 01:23:35;;;;;;;21.27;4.45;;;;;;;;;;4902988;29;20509;-70
2023/05/02 01:26:20;;;;;;;19.27;3.88;;;;;;;;;;4903189;29;20040;-70
2023/05/02 01:28:46;;;;;;;17.38;4.18;;;;;;;;;;4919720;29;20039;-71
2023/05/02 01:31:15;;;;;;;27.85;4.43;;;9.10;99.90;;;;;;4902600;29;20501;-71
2023/05/02 01:33:43;;;;;;;27.23;4.55;;;9.00;99.90;;;;;;4902711;29;20051;-70
2023/05/02 01:36:10;;;;;;;23.20;4.63;;;;;;;;;;4919683;29;20051;-70
2023/05/02 01:38:38;;;;;;;21.17;4.50;;;8.80;99.90;;;;;;4919533;29;20044;-71
2023/05/02 01:41:06;;;;;;;24.77;5.43;;;8.70;99.90;;;;;;4919556;29;20569;-71
2023/05/02 01:43:36;;;;;;;26.70;5.18;;;8.90;99.90;;;;;;4902634;29;20059;-71
2023/05/02 01:46:04;;;;;;;16.90;5.47;;;8.70;99.90;;;;;;4902581;29;20052;-71
2023/05/02 01:48:30;;;;;;;24.00;4.97;;;;;;;;;;4902468;29;20086;-71
2023/05/02 01:50:57;;;;;;;20.30;4.63;;;8.60;99.90;;;;;;4902401;29;20067;-71
2023/05/02 01:53:25;;;;;;;17.67;5.00;;;8.60;99.90;;;;;;4886768;29;20389;-71
2023/05/02 01:55:53;;;;;;;29.63;6.63;;;8.70;99.90;;;;;;4902355;29;20048;-71
2023/05/02 01:58:20;;;;;;;25.92;5.30;;;8.80;99.90;;;;;;4902340;29;20084;-71
2023/05/02 02:00:46;;;;;;;20.38;4.55;;;;;;;;;;4902442;29;20052;-70
2023/05/02 02:03:13;;;;;;;24.65;5.95;;;8.60;99.90;;;;;;4886860;29;20052;-71
2023/05/02 02:05:41;;;;;;;20.58;5.03;;;8.60;99.90;;;;;;4902469;29;20670;-70
2023/05/02 02:08:07;;;;;;;21.35;4.20;;;;;;;;;;4902032;29;20129;-71
2023/05/02 02:10:37;;;;;;;28.30;4.68;;;8.50;99.90;;;;;;4902154;29;20036;-70
2023/05/02 02:13:16;;;;;;;27.17;5.25;;;8.40;99.90;;;;;;4902246;29;20048;-70
2023/05/02 02:15:46;;;;;;;28.70;4.28;;;8.50;99.90;;;;;;4886742;29;20389;-70
2023/05/02 02:18:25;;;;;;;25.13;4.45;;;8.40;99.90;;;;;;4886132;29;20036;-71
2023/05/02 02:20:53;;;;;;;23.75;4.30;;;8.30;99.90;;;;;;4901949;29;20051;-71
2023/05/02 02:23:22;;;;;;;24.60;5.10;;;8.50;99.90;;;;;;4886260;29;20052;-70
2023/05/02 02:25:49;;;;;;;18.15;3.85;;;8.40;99.90;;;;;;4886245;29;20104;-70
2023/05/02 02:28:16;;;;;;;13.50;3.40;;;;;;;;;;4901882;29;20059;-70
2023/05/02 02:30:42;;;;;;;9.10;3.05;;;;;;;;;;4886219;29;20047;-71
2023/05/02 02:33:08;;;;;;;18.90;3.70;;;;;;;;;;4901666;29;20108;-71
2023/05/02 02:35:41;;;;;;;13.65;3.45;;;8.30;99.90;;;;;;4901763;29;20044;-70
2023/05/02 02:38:16;;;;;;;18.52;4.00;;;8.40;99.90;;;;;;4901789;29;20119;-71
2023/05/02 02:41:07;;;;;;;16.00;3.75;;;8.40;99.90;;;;;;4901675;29;20044;-70
2023/05/02 02:43:39;;;;;;;14.90;3.63;;;8.40;99.90;;;;;;4901528;29;20051;-71
2023/05/02 02:46:11;;;;;;;15.20;3.40;;;;;;;;;;4901557;29;20059;-71
2023/05/02 02:48:38;;;;;;;18.10;3.80;;;;;;;;;;4918257;29;20493;-71
2023/05/02 02:51:12;;;;;;;24.48;4.10;;;8.90;99.90;;;;;;4918448;29;20035;-71
2023/05/02 02:54:04;;;;;;;20.95;4.10;;;8.10;99.90;;;;;;4901265;29;20047;-71
2023/05/02 02:56:38;;;;;;;15.23;5.28;;;8.20;99.90;;;;;;4860128;29;20198;-71
2023/05/02 02:59:11;;;;;;;34.70;4.55;;;8.10;99.90;;;;;;4901248;29;20055;-71
2023/05/02 03:01:40;;;;;;;17.38;3.78;;;8.00;99.90;;;;;;4901283;29;20054;-71
2023/05/02 03:04:07;;;;;;;11.43;2.90;;;7.80;99.90;;;;;;4918388;29;20044;-71
2023/05/02 03:06:34;;;;;;;19.92;3.58;;;;;;;;;;4901342;29;20048;-71
2023/05/02 03:09:00;;;;;;;14.82;3.38;;;;;;;;;;4900929;29;20131;-71
2023/05/02 03:11:26;;;;;;;24.17;4.15;;;;;;;;;;4918004;29;20076;-71
2023/05/02 03:13:52;;;;;;;19.35;3.35;;;;;;;;;;4918017;29;20048;-71
2023/05/02 03:16:18;;;;;;;12.60;3.10;;;;;;;;;;4900931;29;20040;-71
2023/05/02 03:18:45;;;;;;;11.70;2.58;;;;;;;;;;4900843;29;20055;-71
2023/05/02 03:21:11;;;;;;;16.25;3.08;;;;;;;;;;4900891;29;20050;-71
2023/05/02 03:23:37;;;;;;;13.77;3.15;;;;;;;;;;4900876;29;20047;-71
2023/05/02 03:26:03;;;;;;;16.63;3.03;;;;;;;;;;4917708;29;20127;-71
2023/05/02 03:28:30;;;;;;;11.75;3.30;;;;;;;;;;4916794;29;20069;-71
2023/05/02 03:30:56;;;;;;;14.48;2.85;;;;;;;;;;4885284;29;20050;-71
2023/05/02 03:33:23;;;;;;;12.88;2.90;;;;;;;;;;4885191;29;20052;-71
2023/05/02 03:35:49;;;;;;;20.48;3.25;;;;;;;;;;4885088;29;20449;-71
2023/05/02 03:38:15;;;;;;;21.33;3.20;;;;;;;;;;4900888;29;20046;-71
2023/05/02 03:40:41;;;;;;;21.23;3.50;;;;;;;;;;4900518;29;20049;-71
2023/05/02 03:43:07;;;;;;;12.55;2.88;;;;;;;;;;4900607;29;20047;-71
2023/05/02 03:45:33;;;;;;;14.85;3.35;;;7.80;99.90;;;;;;4900673;29;20044;-71
2023/05/02 03:47:59;;;;;;;10.70;2.83;;;;;;;;;;4885001;29;20099;-71
2023/05/02 03:50:25;;;;;;;12.00;2.80;;;;;;;;;;4900435;29;20051;-71
2023/05/02 03:52:51;;;;;;;7.10;2.78;;;;;;;;;;4884957;29;20044;-71
2023/05/02 03:55:18;;;;;;;14.18;2.40;;;;;;;;;;4885091;29;20135;-71
2023/05/02 03:57:44;;;;;;;8.85;2.30;;;;;;;;;;4900521;29;20044;-71
2023/05/02 04:00:11;;;;;;;11.45;2.47;;;;;;;;;;4900199;29;20080;-71
2023/05/02 04:02:37;;;;;;;9.98;2.55;;;;;;;;;;4900217;29;20108;-71
2023/05/02 04:05:03;;;;;;;8.82;2.03;;;;;;;;;;4884831;29;20044;-72
2023/05/02 04:07:29;;;;;;;10.93;2.50;;;;;;;;;;4900449;29;20429;-71
2023/05/02 04:09:55;;;;;;;11.20;2.85;;;;;;;;;;4917330;29;20127;-71
2023/05/02 04:12:21;;;;;;;8.65;2.50;;;;;;;;;;4884858;29;20048;-71
2023/05/02 04:14:47;;;;;;;9.40;2.33;;;;;;;;;;4900267;29;20131;-71
2023/05/02 04:17:14;;;;;;;7.90;2.25;;;;;;;;;;4900066;29;20047;-71
2023/05/02 04:19:40;;;;;;;10.38;2.40;;;;;;;;;;4900311;29;20044;-71
2023/05/02 04:22:07;;;;;;;6.43;2.40;;;;;;;;;;4900009;29;20135;-71
2023/05/02 04:24:33;;;;;;;12.15;2.30;;;;;;;;;;4884429;29;20112;-71
2023/05/02 04:26:59;;;;;;;13.20;3.03;;;;;;;;;;4899905;29;20044;-71
2023/05/02 04:29:25;;;;;;;9.30;2.58;;;;;;;;;;4899940;29;20070;-71
2023/05/02 04:31:52;;;;;;;6.72;2.10;;;;;;;;;;4899938;29;20063;-71
2023/05/02 04:34:18;;;;;;;8.05;2.40;;;;;;;;;;4899823;29;20535;-71
2023/05/02 04:36:45;;;;;;;7.10;2.33;;;;;;;;;;4916775;29;20084;-71
2023/05/02 04:39:11;;;;;;;10.65;2.95;;;;;;;;;;4900118;29;20449;-71
2023/05/02 04:41:37;;;;;;;10.18;2.65;;;;;;;;;;4887946;29;20063;-71
2023/05/02 04:44:04;;;;;;;12.32;2.67;;;;;;;;;;4888015;29;20055;-71
2023/05/02 04:46:30;;;;;;;7.97;2.67;;;;;;;;;;4903607;29;20047;-71
2023/05/02 04:48:56;;;;;;;8.52;2.45;;;;;;;;;;4887899;29;20048;-71
2023/05/02 04:51:22;;;;;;;7.93;2.45;;;;;;;;;;4903543;29;20036;-71
2023/05/02 04:53:48;;;;;;;9.15;2.25;;;;;;;;;;4887882;29;20048;-71
2023/05/02 04:56:14;;;;;;;16.38;2.90;;;;;;;;;;4920406;29;20046;-71
2023/05/02 04:58:40;;;;;;;12.23;2.42;;;;;;;;;;4903276;29;20488;-71
2023/05/02 05:01:06;;;;;;;5.30;2.58;;;;;;;;;;4887956;29;20056;-71
2023/05/02 05:03:32;;;;;;;12.25;2.50;;;;;;;;;;4887650;29;20048;-71
2023/05/02 05:05:58;;;;;;;8.30;2.28;;;;;;;;;;4920069;29;20087;-71
2023/05/02 05:08:24;;;;;;;10.02;2.15;;;;;;;;;;4903123;29;20485;-71
2023/05/02 05:10:51;;;;;;;7.45;1.95;;;;;;;;;;4903142;29;20099;-71
2023/05/02 05:13:17;;;;;;;10.80;2.50;;;;;;;;;;4903382;29;20044;-71
2023/05/02 05:15:43;;;;;;;9.20;3.85;;;;;;;;;;4903131;29;20048;-71
2023/05/02 05:18:09;;;;;;;6.65;1.90;;;;;;;;;;4887838;29;20070;-71
2023/05/02 05:20:35;;;;;;;14.75;2.67;;;;;;;;;;4920118;29;20047;-70
2023/05/02 05:23:01;;;;;;;13.70;3.67;;;;;;;;;;4903102;29;20100;-70
2023/05/02 05:25:27;;;;;;;9.98;2.55;;;;;;;;;;4887294;29;20055;-71
2023/05/02 05:27:55;;;;;;;9.35;2.33;;;;;;;;;;4902911;29;20040;-71
2023/05/02 05:30:21;;;;;;;10.80;2.67;;;;;;;;;;4902797;29;20048;-71
2023/05/02 05:32:47;;;;;;;13.20;2.50;;;;;;;;;;4887084;29;20131;-71
2023/05/02 05:35:13;;;;;;;7.90;2.33;;;;;;;;;;4902801;29;20040;-71
2023/05/02 05:37:39;;;;;;;7.20;2.42;;;;;;;;;;4902873;29;20032;-71
2023/05/02 05:40:06;;;;;;;6.93;2.65;;;;;;;;;;4902774;29;20099;-71
2023/05/02 05:42:32;;;;;;;13.40;3.35;;;;;;;;;;4902605;29;20116;-71
2023/05/02 05:44:58;;;;;;;11.70;2.50;;;;;;;;;;4902569;29;20556;-71
2023/05/02 05:47:25;;;;;;;10.25;3.20;;;;;;;;;;4919495;29;20040;-71
2023/05/02 05:49:54;;;;;;;11.23;3.00;;;;;;;;;;4886899;29;20040;-71
2023/05/02 05:52:20;;;;;;;10.90;2.63;;;;;;;;;;4886036;29;20052;-70
2023/05/02 05:54:47;;;;;;;10.02;2.47;;;;;;;;;;4902341;29;20629;-70
2023/05/02 05:57:13;;;;;;;9.45;3.22;;;;;;;;;;4902812;29;20135;-71
2023/05/02 05:59:39;;;;;;;9.38;3.08;;;;;;;;;;4886718;29;20044;-70
2023/05/02 06:02:06;;;;;;;11.93;3.13;;;;;;;;;;4886944;29;20201;-70
2023/05/02 06:04:32;;;;;;;11.13;2.88;;;;;;;;;;4902279;29;20048;-71
2023/05/02 06:06:58;;;;;;;14.95;3.00;;;;;;;;;;4886546;29;20112;-70
2023/05/02 06:09:24;;;;;;;6.38;2.42;;;;;;;;;;4902032;29;20409;-70
2023/05/02 06:11:50;;;;;;;8.70;2.45;;;;;;;;;;4901984;29;20485;-70
2023/05/02 06:14:17;;;;;;;9.20;2.83;;;;;;;;;;4902101;29;20044;-70
2023/05/02 06:16:43;;;;;;;9.90;2.90;;;;;;;;;;4901943;29;20512;-70
2023/05/02 06:19:09;;;;;;;7.43;2.55;;;;;;;;;;4902222;29;20392;-70
2023/05/02 06:21:38;;;;;;;8.18;2.47;;;8.20;99.90;;;;;;4886368;29;20040;-71
2023/05/02 06:24:04;;;;;;;7.68;2.72;;;7.20;99.90;;;;;;4902123;29;20040;-70
2023/05/02 06:26:30;;;;;;;8.63;2.45;;;;;;;;;;4901651;29;20103;-71
2023/05/02 06:28:56;;;;;;;9.75;2.05;;;;;;;;;;4902111;29;20055;-70
2023/05/02 06:31:22;;;;;;;7.25;2.65;;;;;;;;;;4885868;29;20108;-70
2023/05/02 06:33:48;;;;;;;11.95;3.20;;;;;;;;;;4901705;29;20559;-70
2023/05/02 06:36:14;;;;;;;10.18;2.85;;;;;;;;;;4901906;29;20040;-70
2023/05/02 06:38:40;;;;;;;11.93;3.13;;;;;;;;;;4918470;29;20104;-70
2023/05/02 06:41:12;;;;;;;14.23;3.15;;;8.50;99.90;;;;;;4901425;29;20091;-70
2023/05/02 06:43:38;;;;;;;7.78;3.10;;;;;;;;;;4901651;29;20063;-70
2023/05/02 06:46:05;;;;;;;9.80;3.30;;;;;;;;;;4901379;29;20048;-70
2023/05/02 06:48:31;;;;;;;12.20;2.60;;;;;;;;;;4901500;29;20409;-71
2023/05/02 06:50:57;;;;;;;11.05;2.50;;;;;;;;;;4901566;29;20108;-70
2023/05/02 06:53:23;;;;;;;13.52;3.00;;;;;;;;;;4901358;29;20040;-70
2023/05/02 06:55:49;;;;;;;9.20;2.92;;;;;;;;;;4901265;29;20091;-71
2023/05/02 06:58:15;;;;;;;7.55;2.60;;;;;;;;;;4901385;29;20393;-70
2023/05/02 07:00:41;;;;;;;9.13;3.10;;;;;;;;;;4901026;29;20045;-70
2023/05/02 07:03:09;;;;;;;11.68;2.90;;;;;;;;;;4901513;29;20048;-71
2023/05/02 07:05:35;;;;;;;8.27;2.30;;;;;;;;;;4900979;29;20055;-71
2023/05/02 07:08:02;;;;;;;10.25;3.15;;;;;;;;;;4901176;29;20389;-71
2023/05/02 07:10:28;;;;;;;9.45;2.28;;;;;;;;;;4900965;29;20052;-71
2023/05/02 07:12:54;;;;;;;9.20;2.60;;;;;;;;;;4901287;29;20036;-71
2023/05/02 07:15:20;;;;;;;19.60;3.88;;;;;;;;;;4901075;29;20048;-72
2023/05/02 07:17:46;;;;;;;7.85;2.72;;;;;;;;;;4885565;29;20044;-71
2023/05/02 07:20:13;;;;;;;13.73;3.10;;;;;;;;;;4900753;29;20108;-71
2023/05/02 07:22:39;;;;;;;9.15;2.45;;;;;;;;;;4901007;29;20040;-71
2023/05/02 07:25:05;;;;;;;10.75;3.85;;;;;;;;;;4885519;29;20513;-71
2023/05/02 07:27:31;;;;;;;12.25;3.35;;;;;;;;;;4885153;29;20477;-71
2023/05/02 07:29:57;;;;;;;13.23;2.92;;;;;;;;;;4900621;29;20278;-71
2023/05/02 07:32:25;;;;;;;14.25;3.17;;;;;;;;;;4900500;29;20144;-71
2023/05/02 07:34:55;;;;;;;7.60;2.65;;;;;;;;;;4900548;29;20052;-71
2023/05/02 07:37:21;;;;;;;10.18;3.22;;;;;;;;;;4900546;29;20107;-71
2023/05/02 07:39:47;;;;;;;13.63;2.53;;;;;;;;;;4900536;29;20132;-70
2023/05/02 07:42:13;;;;;;;10.43;4.00;;;;;;;;;;4917351;29;20083;-70
2023/05/02 07:44:40;;;;;;;5.90;2.22;;;;;;;;;;4900880;29;20043;-71
2023/05/02 07:47:06;;;;;;;8.25;2.33;;;;;;;;;;4884827;29;20100;-71
2023/05/02 07:49:32;;;;;;;11.98;2.40;;;;;;;;;;4900290;29;20189;-71
2023/05/02 07:51:58;;;;;;;7.35;2.25;;;;;;;;;;4900615;29;20055;-71
2023/05/02 07:54:27;;;;;;;6.47;1.90;;;;;;;;;;4900317;29;20048;-71
2023/05/02 07:56:56;;;;;;;13.90;2.40;;;;;;;;;;4917399;29;20421;-71
2023/05/02 07:59:22;;;;;;;8.38;2.60;;;;;;;;;;4917217;29;20505;-71
2023/05/02 08:01:48;;;;;;;13.57;2.65;;;;;;;;;;4900166;29;20084;-71
2023/05/02 08:04:14;;;;;;;10.40;2.53;;;;;;;;;;4900215;29;20052;-71
2023/05/02 08:06:41;;;;;;;10.98;2.95;;;;;;;;;;4900493;29;20052;-71
2023/05/02 08:09:08;;;;;;;7.90;2.33;;;9.00;99.90;;;;;;4917088;29;20489;-71
2023/05/02 08:11:34;;;;;;;9.43;3.10;;;;;;;;;;4900095;29;20481;-71
2023/05/02 08:14:00;;;;;;;6.80;2.08;;;;;;;;;;4900197;29;20050;-71
2023/05/02 08:16:26;;;;;;;9.90;1.98;;;;;;;;;;4922992;29;20050;-71
2023/05/02 08:18:52;;;;;;;8.07;1.70;;;;;;;;;;4890837;29;20048;-71
2023/05/02 08:21:18;;;;;;;5.72;2.35;;;;;;;;;;4923548;29;20047;-71
2023/05/02 08:23:45;;;;;;;4.75;1.60;;;;;;;;;;4906421;29;20048;-71
2023/05/02 08:26:11;;;;;;;5.97;2.25;;;;;;;;;;4891170;29;20062;-71
2023/05/02 08:28:37;;;;;;;9.13;1.92;;;;;;;;;;4906597;29;20048;-71
2023/05/02 08:31:03;;;;;;;8.80;2.13;;;;;;;;;;4890614;29;20060;-71
2023/05/02 08:33:30;;;;;;;5.55;1.80;;;;;;;;;;4923243;29;20056;-71
2023/05/02 08:35:56;;;;;;;5.63;1.75;;;;;;;;;;4906576;29;20043;-71
2023/05/02 08:38:22;;;;;;;6.53;1.77;;;;;;;;;;4906369;29;20083;-71
2023/05/02 08:40:48;;;;;;;9.48;1.50;;;;;;;;;;4906312;29;20044;-71
2023/05/02 08:43:16;;;;;;;8.05;1.73;;;;;;;;;;4906232;29;20044;-71
2023/05/02 08:45:44;;;;;;;7.05;1.80;;;9.40;99.90;;;;;;4906042;29;20048;-71
2023/05/02 08:48:12;;;;;;;5.80;2.00;;;9.30;99.90;;;;;;4922973;29;20131;-71
2023/05/02 08:50:44;;;;;;;5.10;1.92;;;9.30;99.90;;;;;;4890695;29;20040;-71
2023/05/02 08:53:10;;;;;;;8.48;1.80;;;9.20;99.90;;;;;;4923129;29;20115;-71
2023/05/02 08:55:39;;;;;;;7.85;1.60;;;9.30;99.90;;;;;;4923096;29;20051;-71
2023/05/02 08:58:06;;;;;;;5.15;1.40;;;9.60;99.90;;;;;;4922967;29;20048;-71
2023/05/02 09:00:36;;;;;;;8.05;1.50;;;9.60;99.90;;;;;;4906011;29;20080;-71
2023/05/02 09:03:11;;;;;;;9.25;1.58;;;;;;;;;;4890424;29;20052;-71
2023/05/02 09:05:41;;;;;;;6.70;2.05;;;9.70;99.90;;;;;;4906365;29;20059;-70
2023/05/02 09:08:08;;;;;;;3.65;1.52;;;9.70;99.90;;;;;;4923038;29;20485;-70
2023/05/02 09:10:37;;;;;;;5.82;1.23;;;9.70;99.90;;;;;;4906102;29;20123;-70
2023/05/02 09:13:30;;;;;;;5.43;1.55;;;9.70;99.90;;;;;;4922993;29;20048;-70
2023/05/02 09:16:01;;;;;;;4.22;1.80;;;9.80;99.90;;;;;;4905910;29;20043;-70
2023/05/02 09:18:34;;;;;;;9.30;2.30;;;;;;;;;;4890452;29;20071;-70
2023/05/02 09:21:05;;;;;;;8.07;1.90;;;9.90;99.90;;;;;;4890086;29;20052;-70
2023/05/02 09:23:35;;;;;;;6.88;2.13;;;9.70;99.90;;;;;;4922819;29;20042;-70
2023/05/02 09:26:02;;;;;;;4.72;1.60;;;;;;;;;;4889300;29;20048;-70
2023/05/02 09:28:38;;;;;;;7.47;1.95;;;;;;;;;;4902519;29;20394;-70
2023/05/02 09:31:09;;;;;;;3.65;1.75;;;9.90;99.90;;;;;;4887339;29;20060;-70
2023/05/02 09:33:37;;;;;;;6.95;1.67;;;9.70;99.90;;;;;;4903180;29;20401;-70
2023/05/02 09:36:04;;;;;;;5.68;1.70;;;9.90;99.90;;;;;;4919774;29;20044;-70
2023/05/02 09:38:30;;;;;;;6.35;1.45;;;;;;;;;;4902920;29;20393;-70
2023/05/02 09:40:56;;;;;;;5.00;1.70;;;;;;;;;;4902682;29;20174;-70
2023/05/02 09:43:22;;;;;;;4.20;1.75;;;;;;;;;;4902794;29;20413;-70
2023/05/02 09:46:01;;;;;;;5.38;1.63;;;10.10;99.90;;;;;;4871453;29;20044;-70
2023/05/02 09:48:28;;;;;;;3.65;1.33;;;;;;;;;;4902556;29;20123;-69
2023/05/02 09:50:55;;;;;;;4.15;1.35;;;;;;;;;;4902599;29;20076;-70
2023/05/02 09:53:21;;;;;;;2.17;1.30;;;;;;;;;;4902451;29;20493;-70
2023/05/02 09:55:47;;;;;;;4.13;1.45;;;;;;;;;;4902430;29;20055;-70
2023/05/02 09:58:21;;;;;;;5.13;1.20;;;10.40;99.90;;;;;;4902214;29;20453;-71
2023/05/02 10:00:50;;;;;;;4.32;1.17;;;;;;;;;;4902409;29;20481;-71
2023/05/02 10:03:16;;;;;;;3.63;1.50;;;;;;;;;;4902450;29;20047;-71
2023/05/02 10:05:43;;;;;;;3.30;1.30;;;10.20;99.90;;;;;;4902101;29;20040;-71
2023/05/02 10:08:11;;;;;;;7.40;1.88;;;9.90;99.90;;;;;;4919218;29;20063;-71
2023/05/02 10:10:39;;;;;;;5.72;1.80;;;10.20;99.90;;;;;;4902161;29;20059;-71
2023/05/02 10:13:05;;;;;;;5.50;1.30;;;;;;;;;;4919174;29;20052;-71
2023/05/02 10:15:33;;;;;;;5.57;1.55;;;;;;;;;;4902106;29;20082;-71
2023/05/02 10:18:02;;;;;;;4.15;1.63;;;10.00;99.90;;;;;;4886642;29;20055;-71
2023/05/02 10:20:36;;;;;;;4.40;2.03;;;10.20;99.90;;;;;;4901961;29;20501;-71
2023/05/02 10:23:03;;;;;;;5.13;1.38;;;;;;;;;;4918815;29;20094;-71
2023/05/02 10:25:29;;;;;;;4.72;1.70;;;;;;;;;;4901977;29;20048;-71
2023/05/02 10:27:59;;;;;;;6.82;1.45;;;;;;;;;;4886528;29;20397;-71
2023/05/02 10:30:25;;;;;;;5.68;1.50;;;10.00;99.90;;;;;;4901674;29;20055;-70
2023/05/02 10:32:53;;;;;;;3.45;1.50;;;9.90;99.90;;;;;;4901495;29;20056;-70
2023/05/02 10:35:19;;;;;;;8.48;1.88;;;;;;;;;;4901932;29;20051;-70
2023/05/02 10:37:47;;;;;;;10.40;1.60;;;10.00;99.90;;;;;;4901619;29;20497;-71
2023/05/02 10:40:14;;;;;;;7.45;1.92;;;;;;;;;;4918523;29;20052;-71
2023/05/02 10:42:44;;;;;;;13.48;1.80;;;9.90;99.90;;;;;;4901464;29;20043;-70
2023/05/02 10:45:33;;;;;;;5.03;1.80;;;9.90;99.90;;;;;;4886132;29;20052;-70
2023/05/02 10:48:18;;;;;;;2.88;1.50;;;10.00;99.90;;;;;;4900921;29;20056;-70
2023/05/02 10:50:50;;;;;;;4.68;1.40;;;10.20;99.90;;;;;;4918312;29;20059;-71
2023/05/02 10:53:25;;;;;;;5.00;1.93;;;;;;;;;;4886061;29;20044;-71
2023/05/02 10:56:09;;;;;;;9.95;2.03;;;;;;;;;;4901437;29;20425;-71
2023/05/02 10:58:36;;;;;;;4.40;1.27;;;;;;;;;;4901363;29;20079;-71
2023/05/02 11:01:28;;;;;;;4.25;1.40;;;10.40;99.90;;;;;;4901445;29;20136;-71
2023/05/02 11:03:57;;;;;;;3.33;1.40;;;;;;;;;;4905722;29;20421;-71
2023/05/02 11:06:33;;;;;;;3.35;1.45;;;11.50;99.90;;;;;;4901317;29;20107;-71
2023/05/02 11:09:21;;;;;;;6.00;1.70;;;10.80;99.90;;;;;;4901104;29;20055;-71
2023/05/02 11:11:49;;;;;;;4.90;1.45;;;10.80;99.90;;;;;;4888894;29;20044;-71
2023/05/02 11:14:37;;;;;;;5.45;1.33;;;10.70;99.90;;;;;;4885846;29;20087;-72
2023/05/02 11:17:03;;;;;;;2.58;1.35;;;;;;;;;;4871222;29;20048;-70
2023/05/02 11:19:55;;;;;;;29.40;2.78;;;10.60;99.90;;;;;;4901106;29;20091;-70
2023/05/02 11:22:23;;;;;;;4.65;1.60;;;;;;;;;;4900892;29;20127;-70
2023/05/02 11:24:50;;;;;;;5.22;1.40;;;10.10;99.90;;;;;;4885543;29;20048;-70
2023/05/02 11:27:32;;;;;;;4.20;1.35;;;;;;;;;;4900945;29;20052;-70
2023/05/02 11:30:04;;;;;;;3.20;1.60;;;10.50;99.90;;;;;;4900690;29;20063;-70
2023/05/02 11:32:47;;;;;;;1.85;1.42;;;;;;;;;;4870275;29;20084;-70
2023/05/02 11:35:18;;;;;;;46.55;4.28;;;10.90;99.90;;;;;;4900515;29;20503;-70
2023/05/02 11:38:00;;;;;;;5.82;1.52;;;10.60;99.90;;;;;;4900427;29;20492;-71
2023/05/02 11:40:27;;;;;;;5.43;1.50;;;;;;;;;;4900326;29;20044;-70
2023/05/02 11:42:53;;;;;;;4.03;1.42;;;;;;;;;;4900643;29;20119;-70
2023/05/02 11:45:20;;;;;;;6.07;1.77;;;;;;;;;;4900382;29;20040;-70
2023/05/02 11:47:47;;;;;;;6.28;1.50;;;;;;;;;;4900584;29;20052;-70
2023/05/02 11:50:13;;;;;;;5.97;1.50;;;11.00;99.90;;;;;;4884182;29;20099;-70
2023/05/02 11:52:41;;;;;;;4.85;1.40;;;10.90;99.90;;;;;;4885155;29;20385;-70
2023/05/02 11:55:10;;;;;;;3.08;1.33;;;10.50;99.90;;;;;;4900510;29;20396;-71
2023/05/02 11:57:37;;;;;;;7.47;1.40;;;10.70;99.90;;;;;;4900248;29;20044;-71
2023/05/02 12:00:03;;;;;;;4.88;1.15;;;;;;;;;;4900179;29;20048;-71
2023/05/02 12:02:43;;;;;;;4.30;1.38;;;10.90;99.90;;;;;;4884991;29;20082;-71
2023/05/02 12:05:12;;;;;;;6.80;1.70;;;11.00;99.90;;;;;;4885267;29;20048;-71
2023/05/02 12:07:47;;;;;;;4.03;1.27;;;10.70;99.90;;;;;;4900246;29;20485;-70
2023/05/02 12:10:14;;;;;;;3.83;1.50;;;;;;;;;;4900204;29;20143;-71
2023/05/02 12:12:42;;;;;;;5.32;1.33;;;10.80;99.90;;;;;;4900051;29;20040;-70
2023/05/02 12:15:10;;;;;;;5.90;1.63;;;9.80;99.90;;;;;;4884521;29;20076;-70
2023/05/02 12:17:51;;;;;;;4.68;1.38;;;10.60;99.90;;;;;;4900172;29;20078;-71
2023/05/02 12:20:17;;;;;;;4.10;1.30;;;;;;;;;;4884713;29;20552;-71
2023/05/02 12:22:43;;;;;;;5.05;1.33;;;;;;;;;;4900154;29;20044;-71
2023/05/02 12:25:09;;;;;;;3.08;1.42;;;;;;;;;;4884477;29;20059;-72
2023/05/02 12:27:36;;;;;;;2.70;1.17;;;;;;;;;;4917048;29;20040;-71
2023/05/02 12:30:04;;;;;;;3.72;1.30;;;;;;;;;;4900113;29;20059;-71
2023/05/02 12:32:32;;;;;;;2.90;1.23;;;;;;;;;;4899561;29;20059;-70
2023/05/02 12:34:58;;;;;;;3.22;1.20;;;;;;;;;;4899900;29;20485;-70
2023/05/02 12:37:28;;;;;;;5.15;1.50;;;10.70;99.90;;;;;;4916766;29;20118;-70
2023/05/02 12:39:55;;;;;;;2.83;1.30;;;;;;;;;;4900076;29;20075;-71
2023/05/02 12:42:22;;;;;;;3.50;1.10;;;;;;;;;;4916760;29;20050;-71
2023/05/02 12:44:51;;;;;;;5.13;1.10;;;;;;;;;;4884344;29;20056;-71
2023/05/02 12:47:18;;;;;;;3.72;1.17;;;;;;;;;;4900133;29;20047;-71
2023/05/02 12:49:50;;;;;;;3.00;1.63;;;;;;;;;;4899679;29;20060;-71
2023/05/02 12:52:17;;;;;;;14.13;2.90;;;10.70;99.90;;;;;;4899771;29;20040;-70
2023/05/02 12:54:43;;;;;;;9.98;2.17;;;;;;;;;;4884263;29;20036;-71
2023/05/02 12:57:10;;;;;;;3.22;1.20;;;;;;;;;;4916702;29;20083;-71
2023/05/02 12:59:36;;;;;;;5.68;1.15;;;;;;;;;;4899713;29;20053;-70
2023/05/02 13:02:02;;;;;;;3.80;1.40;;;;;;;;;;4901952;29;20039;-71
2023/05/02 13:04:38;;;;;;;4.00;1.13;;;;;;;;;;4903462;29;20070;-71
2023/05/02 13:07:05;;;;;;;3.33;1.13;;;;;;;;;;4903332;29;20058;-71
2023/05/02 13:09:31;;;;;;;5.50;1.20;;;;;;;;;;4887649;29;20408;-71
2023/05/02 13:12:02;;;;;;;9.63;1.67;;;;;;;;;;4903434;29;20039;-71
2023/05/02 13:14:28;;;;;;;3.78;1.30;;;;;;;;;;4888153;29;20552;-70
2023/05/02 13:16:54;;;;;;;4.95;1.38;;;;;;;;;;4903075;29;20131;-71
2023/05/02 13:19:21;;;;;;;2.72;1.25;;;;;;;;;;4903276;29;20046;-71
2023/05/02 13:21:47;;;;;;;6.57;1.25;;;;;;;;;;4887523;29;20066;-71
2023/05/02 13:24:13;;;;;;;3.78;1.38;;;;;;;;;;4902776;29;20130;-71
2023/05/02 13:26:42;;;;;;;5.97;1.42;;;10.50;99.90;;;;;;4902991;29;20051;-70
2023/05/02 13:29:10;;;;;;;6.43;1.52;;;;;;;;;;4919796;29;20203;-70
2023/05/02 13:31:36;;;;;;;4.00;1.15;;;11.20;99.90;;;;;;4919653;29;20059;-72
2023/05/02 13:34:03;;;;;;;4.03;1.25;;;;;;;;;;4902734;29;20071;-70
2023/05/02 13:36:30;;;;;;;4.53;1.10;;;;;;;;;;4902948;29;20509;-71
2023/05/02 13:38:56;;;;;;;7.53;1.15;;;;;;;;;;4902545;29;20059;-71
2023/05/02 13:41:25;;;;;;;3.83;1.33;;;;;;;;;;4887276;29;20052;-72
2023/05/02 13:43:52;;;;;;;7.28;1.73;;;;;;;;;;4902493;29;20048;-71
2023/05/02 13:46:19;;;;;;;4.57;1.25;;;;;;;;;;4887226;29;20047;-71
2023/05/02 13:48:45;;;;;;;5.15;1.10;;;;;;;;;;4919535;29;20504;-71
2023/05/02 13:51:11;;;;;;;2.63;1.13;;;;;;;;;;4919353;29;20040;-71
2023/05/02 13:53:37;;;;;;;3.20;1.10;;;;;;;;;;4886797;29;20055;-71
2023/05/02 13:56:03;;;;;;;3.85;1.10;;;;;;;;;;4886747;29;20525;-71
2023/05/02 13:58:29;;;;;;;6.18;1.70;;;;;;;;;;4902235;29;20040;-71
2023/05/02 14:00:55;;;;;;;5.80;1.35;;;;;;;;;;4902514;29;20044;-71
2023/05/02 14:03:21;;;;;;;6.10;1.35;;;;;;;;;;4902350;29;20193;-71
2023/05/02 14:05:48;;;;;;;8.63;1.10;;;;;;;;;;4902128;29;20052;-71
2023/05/02 14:08:17;;;;;;;6.40;1.67;;;;;;;;;;4902397;29;20081;-71
2023/05/02 14:10:43;;;;;;;4.38;1.40;;;;;;;;;;4901928;29;20044;-71